Time;durP1;ratioP1;P1;durP2;ratioP2;P2;SDS_P1;SDS_P2;PMS_P1;PMS_P2;Temp;Humidity;BMP_temperature;BMP_pressure;BME280_temperature;BME280_humidity;BME280_pressure;Samples;Min_cycle;Max_cycle;Signal;HPM_P1;HPM_P2
2022/07/21 00:01:46;;;;;;;2.50;2.30;;;;;;;22.89;48.88;94923.41;5053375;28;20222;-87
2022/07/21 00:04:13;;;;;;;3.20;2.10;;;;;;;22.93;48.83;94937.66;5053783;28;20202;-86
2022/07/21 00:06:40;;;;;;;2.28;2.08;;;;;;;22.91;48.79;94934.44;5053630;28;20187;-84
2022/07/21 00:09:09;;;;;;;2.00;1.90;;;;;;;22.89;48.62;94936.44;5053548;28;20191;-84
2022/07/21 00:11:35;;;;;;;2.45;1.90;;;;;;;22.36;48.48;94851.41;5053370;28;20194;-86
2022/07/21 00:14:02;;;;;;;2.55;2.33;;;;;;;22.84;48.59;94929.22;5053337;28;20217;-85
2022/07/21 00:16:29;;;;;;;3.47;2.53;;;;;;;22.71;49.06;94913.63;5053906;28;20187;-84
2022/07/21 00:18:56;;;;;;;3.72;2.22;;;;;;;22.03;49.08;94815.84;5053133;28;20613;-86
2022/07/21 00:21:24;;;;;;;2.25;2.05;;;;;;;22.76;49.11;94932.88;5053935;28;20199;-86
2022/07/21 00:23:50;;;;;;;2.40;2.20;;;;;;;22.73;49.01;94941.09;5054049;28;20188;-83
2022/07/21 00:26:19;;;;;;;4.32;2.25;;;;;;;22.58;49.23;94916.28;5061477;28;20202;-86
2022/07/21 00:28:46;;;;;;;3.33;2.20;;;;;;;22.69;49.07;94939.13;5060580;28;20226;-84
2022/07/21 00:31:12;;;;;;;2.70;2.50;;;;;;;22.70;48.90;94943.31;5061545;28;20183;-86
2022/07/21 00:33:39;;;;;;;2.60;2.40;;;;;;;22.39;48.86;94897.09;5064765;28;20191;-86
2022/07/21 00:36:08;;;;;;;3.97;2.40;;;;;;;22.66;49.17;94934.31;5067064;28;20185;-84
2022/07/21 00:38:35;;;;;;;5.95;2.72;;;;;;;22.64;49.33;94931.91;5068374;28;20190;-85
2022/07/21 00:41:02;;;;;;;2.53;2.33;;;;;;;22.54;49.85;94929.75;5059753;28;20201;-86
2022/07/21 00:43:30;;;;;;;3.63;2.90;;;;;;;22.59;49.89;94936.94;5053658;28;20202;-86
2022/07/21 00:45:57;;;;;;;3.75;2.85;;;;;;;22.57;50.22;94933.72;5052691;28;20191;-85
2022/07/21 00:48:25;;;;;;;5.97;2.95;;;;;;;22.26;50.18;94898.75;5052262;28;20237;-87
2022/07/21 00:50:52;;;;;;;3.70;2.92;;;;;;;22.50;50.61;94936.38;5052396;28;20297;-85
2022/07/21 00:53:19;;;;;;;3.75;2.85;;;;;;;22.47;50.82;94938.59;5052303;28;20198;-84
2022/07/21 00:55:47;;;;;;;9.68;2.72;;;;;;;22.44;50.69;94942.38;5052433;28;20202;-85
2022/07/21 00:58:14;;;;;;;3.55;2.85;;;;;;;22.42;51.18;94938.41;5052082;28;20188;-81
2022/07/21 01:00:43;;;;;;;7.78;3.47;;;;;;;21.39;51.33;94787.94;5051785;28;20222;-84
2022/07/21 01:03:11;;;;;;;5.70;2.67;;;;;;;21.73;51.53;94841.53;5051933;28;20760;-83
2022/07/21 01:05:38;;;;;;;3.05;2.75;;;;;;;22.31;51.62;94926.00;5052117;28;20214;-84
2022/07/21 01:08:06;;;;;;;5.75;3.00;;;;;;;22.27;51.80;94928.19;5051737;28;20188;-82
2022/07/21 01:10:33;;;;;;;4.70;2.67;;;;;;;22.23;51.93;94917.38;5051774;28;20199;-85
2022/07/21 01:13:00;;;;;;;6.25;2.70;;;;;;;22.22;52.01;94917.59;5052275;28;20202;-82
2022/07/21 01:15:28;;;;;;;7.97;3.30;;;;;;;22.02;51.96;94894.16;5051924;28;20604;-81
2022/07/21 01:17:57;;;;;;;7.28;3.00;;;;;;;22.09;52.12;94904.56;5051320;28;20233;-83
2022/07/21 01:20:25;;;;;;;4.47;3.10;;;;;;;22.14;52.23;94920.41;5051675;28;20689;-87
2022/07/21 01:22:56;;;;;;;6.80;3.00;;;;;;;22.11;52.29;94916.41;5051699;28;20195;-87
2022/07/21 01:25:24;;;;;;;3.55;3.20;;;;;;;22.06;52.53;94910.97;5051717;28;20662;-87
2022/07/21 01:27:51;;;;;;;3.53;3.05;;;;;;;21.88;52.84;94890.78;5051513;28;20191;-86
2022/07/21 01:30:18;;;;;;;7.13;2.97;;;;;;;21.85;52.91;94887.78;5051543;28;20249;-86
2022/07/21 01:32:45;;;;;;;7.13;3.25;;;;;;;21.84;53.18;94889.56;5052063;28;20213;-86
2022/07/21 01:35:15;;;;;;;4.53;3.05;;;;;;;21.75;53.13;94881.19;5051305;28;20224;-87
2022/07/21 01:37:44;;;;;;;4.32;3.33;;;;;;;21.32;53.10;94809.75;5051491;28;20647;-83
2022/07/21 01:42:58;;;;;;;5.95;3.10;;;;;;;21.92;53.11;94899.00;5051718;28;20175;-87
2022/07/21 01:45:25;;;;;;;4.72;3.05;;;;;;;21.91;53.27;94905.22;5051604;28;20194;-87
2022/07/21 01:47:52;;;;;;;4.53;3.25;;;;;;;21.20;53.33;94804.31;5051611;28;20195;-86
2022/07/21 01:50:21;;;;;;;3.93;2.70;;;;;;;21.67;53.65;94885.78;5051183;28;20567;-84
2022/07/21 01:52:48;;;;;;;5.05;2.97;;;;;;;21.82;53.52;94911.63;5051401;28;20240;-85
2022/07/21 01:55:16;;;;;;;3.83;3.10;;;;;;;21.79;53.76;94911.00;5051083;28;20187;-86
2022/07/21 01:57:43;;;;;;;3.80;2.60;;;;;;;21.02;53.55;94791.91;5051225;28;20190;-84
2022/07/21 02:00:11;;;;;;;2.50;2.30;;;;;;;21.74;53.19;94910.81;5051189;28;20210;-85
2022/07/21 02:02:38;;;;;;;3.40;2.60;;;;;;;21.41;52.68;94860.56;5051569;28;20234;-85
2022/07/21 02:05:06;;;;;;;3.20;2.40;;;;;;;21.40;52.65;94854.56;5051988;28;20191;-83
2022/07/21 02:07:33;;;;;;;2.70;2.50;;;;;;;20.72;52.65;94753.28;5051508;28;20195;-86
2022/07/21 02:10:00;;;;;;;4.73;2.73;;;;;;;20.91;52.44;94785.53;5052657;28;20183;-86
2022/07/21 02:12:28;;;;;;;4.00;2.50;;;;;;;21.64;52.61;94902.63;5053790;28;20202;-86
2022/07/21 02:14:55;;;;;;;3.97;2.70;;;;;;;21.63;52.83;94908.00;5051072;28;20202;-85
2022/07/21 02:17:22;;;;;;;3.93;2.40;;;;;;;21.58;52.94;94906.00;5050703;28;20722;-86
2022/07/21 02:19:49;;;;;;;4.40;2.80;;;;;;;21.57;52.78;94901.81;5050280;28;20563;-87
2022/07/21 02:22:16;;;;;;;4.53;2.70;;;;;;;21.55;52.85;94903.84;5052175;28;20190;-88
2022/07/21 02:24:43;;;;;;;2.90;2.67;;;;;;;21.52;53.09;94907.63;5051636;28;20202;-87
2022/07/21 02:27:10;;;;;;;3.13;2.60;;;;;;;21.50;53.20;94901.84;5052314;28;20183;-85
2022/07/21 02:29:38;;;;;;;5.00;3.27;;;;;;;21.19;53.29;94854.75;5052023;28;20662;-87
2022/07/21 02:32:06;;;;;;;2.90;2.70;;;;;;;21.28;53.33;94875.16;5054413;28;20191;-86
2022/07/21 02:34:32;;;;;;;3.10;2.37;;;;;;;21.44;53.49;94902.63;5066113;28;20179;-87
2022/07/21 02:36:59;;;;;;;4.43;3.03;;;;;;;21.41;53.70;94897.81;5061949;28;20270;-85
2022/07/21 02:39:27;;;;;;;5.53;3.20;;;;;;;21.40;53.71;94898.00;5051176;28;20226;-87
2022/07/21 02:41:54;;;;;;;4.00;2.80;;;;;;;21.37;53.72;94907.00;5051824;28;20183;-86
2022/07/21 02:44:20;;;;;;;4.23;3.17;;;;;;;21.35;53.66;94901.22;5050904;28;20197;-87
2022/07/21 02:46:49;;;;;;;5.67;3.03;;;;;;;21.32;53.96;94908.59;5050541;28;20195;-86
2022/07/21 02:49:16;;;;;;;4.43;2.50;;;;;;;21.30;53.88;94895.78;5053033;28;20205;-87
2022/07/21 02:51:42;;;;;;;4.33;2.47;;;;;;;21.26;54.04;94897.97;5050799;28;20191;-86
2022/07/21 02:54:09;;;;;;;4.60;3.10;;;;;;;21.24;54.22;94897.38;5051212;28;20197;-85
2022/07/21 02:56:36;;;;;;;4.27;2.83;;;;;;;21.21;54.31;94895.16;5051961;28;20202;-88
2022/07/21 02:59:03;;;;;;;3.43;2.30;;;;;;;20.67;54.26;94817.28;5050771;28;20683;-87
2022/07/21 03:01:32;;;;;;;3.00;2.70;;;;;;;21.18;54.23;94900.75;5050794;28;20568;-86
2022/07/21 03:04:00;;;;;;;4.80;3.30;;;;;;;21.17;54.21;94904.38;5051214;28;20191;-87
2022/07/21 03:06:27;;;;;;;4.40;2.80;;;;;;;21.00;54.19;94879.72;5054236;28;20187;-88
2022/07/21 03:08:54;;;;;;;4.50;3.50;;;;;;;20.94;54.13;94870.09;5050389;28;20191;-88
2022/07/21 03:11:21;;;;;;;4.37;2.60;;;;;;;21.15;54.27;94902.94;5049625;28;20187;-85
2022/07/21 03:13:47;;;;;;;8.93;3.17;;;;;;;20.95;54.47;94875.13;5050287;28;20196;-84
2022/07/21 03:16:14;;;;;;;3.53;3.10;;;;;;;21.15;54.47;94903.75;5049951;28;20198;-88
2022/07/21 03:18:42;;;;;;;10.03;3.20;;;;;;;21.16;54.66;94915.78;5050092;28;20230;-86
2022/07/21 03:21:10;;;;;;;11.53;3.17;;;;;;;21.15;54.73;94908.16;5050190;28;20252;-87
2022/07/21 03:23:37;;;;;;;8.63;3.37;;;;;;;20.82;54.84;94871.69;5050280;28;20183;-85
2022/07/21 03:26:04;;;;;;;4.70;3.20;;;;;;;20.32;54.89;94782.78;5050750;28;20187;-88
2022/07/21 03:28:31;;;;;;;5.80;3.03;;;;;;;20.95;55.00;94893.31;5050516;28;20195;-87
2022/07/21 03:30:58;;;;;;;4.30;2.80;;;;;;;20.62;55.14;94840.44;5050707;28;20554;-85
2022/07/21 03:33:25;;;;;;;4.00;2.60;;;;;;;21.07;55.14;94914.38;5054739;28;20194;-87
2022/07/21 03:35:52;;;;;;;5.17;3.53;;;;;;;21.04;55.32;94920.75;5056054;28;20270;-86
2022/07/21 03:38:20;;;;;;;7.03;3.43;;;;;;;20.73;55.46;94874.47;5054586;28;20191;-84
2022/07/21 03:40:47;;;;;;;5.63;3.17;;;;;;;21.00;55.52;94922.13;5053694;28;20214;-84
2022/07/21 03:43:14;;;;;;;3.33;3.03;;;;;;;20.97;55.69;94914.72;5052971;28;20229;-85
2022/07/21 03:45:41;;;;;;;9.90;3.60;;;;;;;20.95;55.61;94911.53;5054346;28;20199;-82
2022/07/21 03:48:09;;;;;;;6.03;3.97;;;;;;;20.57;56.02;94866.22;5053732;28;20689;-84
2022/07/21 03:50:38;;;;;;;4.97;3.90;;;;;;;20.49;55.74;94852.41;5053350;28;20217;-86
2022/07/21 03:53:06;;;;;;;4.30;3.17;;;;;;;20.93;56.10;94923.09;5052942;28;20188;-83
2022/07/21 03:55:34;;;;;;;5.53;2.97;;;;;;;20.74;56.39;94894.28;5053242;28;20355;-85
2022/07/21 03:58:04;;;;;;;9.07;3.60;;;;;;;20.93;55.96;94920.50;5059508;28;20184;-87
2022/07/21 04:00:34;;;;;;;9.47;3.33;;;;;;;20.95;56.05;94923.72;5054621;28;20211;-82
2022/07/21 04:03:01;;;;;;;7.47;3.57;;;;;;;20.33;55.65;94826.72;5053914;28;20202;-84
2022/07/21 04:05:28;;;;;;;9.50;3.73;;;;;;;20.98;55.14;94931.94;5053226;28;20220;-87
2022/07/21 04:07:56;;;;;;;8.17;4.00;;;;;;;20.99;55.49;94923.13;5053435;28;20195;-85
2022/07/21 04:10:26;;;;;;;10.37;3.93;;;;;;;20.66;55.17;94862.44;5053345;28;20188;-88
2022/07/21 04:12:55;;;;;;;10.50;3.93;;;;;;;20.54;55.47;94857.00;5054179;28;20187;-88
2022/07/21 04:15:23;;;;;;;8.10;3.87;;;;;;;20.86;55.62;94912.72;5054425;28;20194;-84
2022/07/21 04:17:50;;;;;;;8.47;4.17;;;;;;;20.53;55.96;94843.22;5055160;28;20245;-87
2022/07/21 04:20:18;;;;;;;8.67;4.30;;;;;;;21.03;55.83;94926.94;5053045;28;20215;-88
2022/07/21 04:22:45;;;;;;;10.20;3.83;;;;;;;21.04;55.87;94922.56;5053233;28;20191;-85
2022/07/21 04:25:13;;;;;;;7.50;4.33;;;;;;;20.98;55.96;94918.94;5052205;28;20198;-83
2022/07/21 04:27:41;;;;;;;7.33;3.80;;;;;;;21.08;55.58;94928.16;5052724;28;20203;-84
2022/07/21 04:30:12;;;;;;;7.83;4.00;;;;;;;20.82;55.55;94882.09;5052312;28;20205;-87
2022/07/21 04:32:39;;;;;;;9.80;3.60;;;;;;;20.96;55.44;94922.72;5052746;28;20190;-85
2022/07/21 04:35:07;;;;;;;5.70;3.67;;;;;;;20.84;55.86;94935.47;5055563;28;20199;-83
2022/07/21 04:37:35;;;;;;;14.30;4.07;;;;;;;20.80;55.91;94932.47;5055751;28;20198;-85
2022/07/21 04:40:02;;;;;;;12.13;4.27;;;;;;;20.81;55.79;94928.06;5053919;28;20296;-86
2022/07/21 04:42:29;;;;;;;10.07;3.77;;;;;;;20.65;56.33;94929.22;5053134;28;20279;-84
2022/07/21 04:44:55;;;;;;;6.87;4.23;;;;;;;20.18;56.12;94858.03;5052531;28;20594;-86
2022/07/21 04:47:27;;;;;;;9.90;3.50;;;;;;;20.75;55.80;94936.66;5054430;28;20197;-86
2022/07/21 04:49:54;;;;;;;6.37;3.50;;;;;;;20.28;55.61;94870.66;5053803;28;20574;-86
2022/07/21 04:52:21;;;;;;;5.93;3.63;;;;;;;20.77;55.57;94945.88;5066219;28;20191;-85
2022/07/21 04:54:48;;;;;;;9.83;3.33;;;;;;;20.83;55.35;94944.28;5063667;28;20241;-82
2022/07/21 04:57:15;;;;;;;10.47;3.33;;;;;;;20.69;55.25;94925.25;5057705;28;20206;-83
2022/07/21 04:59:41;;;;;;;5.47;3.60;;;;;;;20.85;55.11;94946.69;5053229;28;20197;-87
2022/07/21 05:02:09;;;;;;;4.77;3.70;;;;;;;20.91;54.83;94948.53;5052353;28;20183;-87
2022/07/21 05:04:37;;;;;;;7.97;3.97;;;;;;;20.82;55.26;94934.88;5052227;28;20246;-87
2022/07/21 05:07:04;;;;;;;5.90;3.43;;;;;;;20.97;54.83;94947.72;5052150;28;20222;-88
2022/07/21 05:09:31;;;;;;;5.53;3.53;;;;;;;20.98;55.07;94947.53;5052244;28;20578;-88
2022/07/21 05:11:58;;;;;;;6.87;3.40;;;;;;;21.01;54.95;94947.13;5052341;28;20182;-88
2022/07/21 05:14:25;;;;;;;10.67;3.27;;;;;;;21.04;54.98;94944.16;5053282;28;20295;-86
2022/07/21 05:16:52;;;;;;;7.80;3.20;;;;;;;21.03;55.25;94923.56;5055977;28;20193;-89
2022/07/21 05:19:19;;;;;;;8.20;3.60;;;;;;;21.30;55.86;94934.81;5053340;28;20198;-85
2022/07/21 05:21:47;;;;;;;7.20;3.60;;;;;;;21.45;56.17;94938.03;5051753;28;20218;-83
2022/07/21 05:24:14;;;;;;;11.90;3.43;;;;;;;21.63;55.03;94936.66;5052808;28;20198;-85
2022/07/21 05:26:41;;;;;;;8.17;4.43;;;;;;;20.97;54.60;94812.50;5052166;28;20690;-84
2022/07/21 05:29:08;;;;;;;7.17;3.90;;;;;;;21.92;54.21;94949.25;5052125;28;20195;-85
2022/07/21 05:31:35;;;;;;;9.27;3.37;;;;;;;21.09;54.77;94778.91;5051873;28;20194;-86
2022/07/21 05:34:02;;;;;;;6.97;3.35;;;;;;;22.31;54.61;94936.41;5051483;28;20191;-87
2022/07/21 05:36:29;;;;;;;8.73;3.88;;;;;;;22.35;53.82;94920.16;5052106;28;20678;-85
2022/07/21 05:38:57;;;;;;;8.48;3.80;;;;;;;22.59;52.16;94923.13;5052206;28;20187;-88
2022/07/21 05:41:24;;;;;;;4.88;3.88;;;;;;;22.86;51.72;94945.47;5051576;28;20228;-88
2022/07/21 05:43:51;;;;;;;4.20;3.33;;;;;;;22.99;51.51;94950.66;5051269;28;20187;-83
2022/07/21 05:46:18;;;;;;;6.47;3.67;;;;;;;23.19;50.06;94947.16;5053374;28;20202;-82
2022/07/21 05:48:44;;;;;;;5.53;3.50;;;;;;;23.14;49.49;94945.13;5051431;28;20222;-85
2022/07/21 05:51:17;;;;;;;6.97;3.45;;;;;;;21.13;50.15;94605.88;5049959;28;20190;-85
2022/07/21 05:53:45;;;;;;;13.15;3.97;;;;;;;22.38;50.11;94792.06;5068515;28;20183;-83
2022/07/21 05:56:14;;;;;;;12.10;3.75;;;;;;;23.07;49.69;94876.56;5070099;28;20190;-82
2022/07/21 05:58:41;;;;;;;4.88;3.50;;;;;;;22.36;49.17;94759.41;5070156;28;20266;-81
2022/07/21 06:01:12;;;;;;;10.98;4.00;;;;;;;23.67;49.36;94942.22;5070071;28;20306;-81
2022/07/21 06:03:41;;;;;;;8.57;3.55;;;;;;;23.44;49.71;94880.09;5069272;28;20719;-80
2022/07/21 06:06:08;;;;;;;6.88;3.13;;;;;;;23.99;49.77;94937.72;5050290;28;20206;-83
2022/07/21 06:08:37;;;;;;;9.45;4.00;;;;;;;24.15;49.03;94938.22;5049558;28;20194;-82
2022/07/21 06:11:04;;;;;;;7.20;3.72;;;;;;;24.28;49.24;94935.47;5050029;28;20187;-81
2022/07/21 06:13:32;;;;;;;11.30;3.30;;;;;;;24.46;48.66;94935.50;5049680;28;20190;-83
2022/07/21 06:15:59;;;;;;;5.40;3.55;;;;;;;24.28;47.86;94897.03;5049302;28;20199;-82
2022/07/21 06:18:26;;;;;;;7.38;3.67;;;;;;;24.73;47.16;94943.03;5063676;28;20237;-82
2022/07/21 06:20:53;;;;;;;15.82;4.07;;;;;;;24.80;47.06;94941.16;5069651;28;20681;-81
2022/07/21 06:23:20;;;;;;;5.75;2.95;;;;;;;24.21;46.19;94841.41;5069856;28;20194;-84
2022/07/21 06:25:47;;;;;;;5.40;3.55;;;;;;;24.87;46.11;94925.34;5070284;28;20673;-82
2022/07/21 06:28:14;;;;;;;6.53;3.50;;;;;;;25.02;45.78;94933.63;5070143;28;20187;-83
2022/07/21 06:30:42;;;;;;;6.82;3.35;;;;;;;25.14;46.11;94931.88;5072389;28;20280;-82
2022/07/21 06:33:12;;;;;;;3.95;3.00;;;;;;;25.26;46.22;94927.50;5073374;28;20201;-89
2022/07/21 06:35:39;;;;;;;7.07;3.42;;;;;;;25.43;46.18;94929.44;5070105;28;20198;-82
2022/07/21 06:38:06;;;;;;;6.68;2.92;;;;;;;24.81;44.97;94819.78;5072725;28;20194;-84
2022/07/21 06:40:33;;;;;;;7.80;3.75;;;;;;;25.63;45.16;94923.91;5075041;28;20218;-84
2022/07/21 06:43:00;;;;;;;7.65;3.28;;;;;;;25.01;44.70;94795.94;5075458;28;20191;-83
2022/07/21 06:45:27;;;;;;;6.88;3.47;;;;;;;25.19;45.03;94806.38;5078514;28;20190;-86
2022/07/21 06:48:05;;;;;;;8.00;3.20;;;;;;;26.05;45.08;94922.06;5087139;28;20194;-84
2022/07/21 06:50:33;;;;;;;9.65;3.10;;;;;;;25.75;44.88;94860.03;5087955;28;20212;-83
2022/07/21 06:53:00;;;;;;;15.50;9.57;;;;;;;26.23;44.12;94923.75;5077126;28;20186;-82
2022/07/21 06:55:28;;;;;;;23.25;18.15;;;;;;;26.34;44.05;94916.88;5072792;28;20201;-85
2022/07/21 06:57:55;;;;;;;6.45;4.60;;;;;;;25.64;44.24;94792.72;5073690;28;20190;-86
2022/07/21 07:00:22;;;;;;;8.52;3.45;;;;;;;26.58;44.26;94917.69;5070557;28;20183;-85
2022/07/21 07:02:49;;;;;;;5.00;3.20;;;;;;;26.42;44.12;94875.34;5069819;28;20194;-85
2022/07/21 07:05:17;;;;;;;6.95;3.50;;;;;;;26.91;43.40;94919.66;5069612;28;20290;-82
2022/07/21 07:07:44;;;;;;;6.93;3.45;;;;;;;27.02;43.17;94922.22;5077084;28;20186;-85
2022/07/21 07:10:12;;;;;;;4.50;2.90;;;;;;;27.06;43.17;94913.88;5075740;28;20194;-82
2022/07/21 07:12:39;;;;;;;8.30;3.55;;;;;;;27.15;43.01;94910.66;5073443;28;20657;-82
2022/07/21 07:15:07;;;;;;;9.60;3.10;;;;;;;27.26;43.05;94909.81;5073360;28;20642;-79
2022/07/21 07:17:34;;;;;;;8.02;3.42;;;;;;;27.27;42.96;94890.38;5072904;28;20249;-81
2022/07/21 07:20:00;;;;;;;7.78;3.13;;;;;;;27.54;43.59;94913.41;5073809;28;20182;-81
2022/07/21 07:22:29;;;;;;;4.90;3.00;;;;;;;27.52;42.97;94886.59;5073088;28;20225;-83
2022/07/21 07:24:56;;;;;;;3.97;3.15;;;;;;;27.75;43.16;94906.69;5073315;28;20222;-83
2022/07/21 07:27:22;;;;;;;5.18;2.83;;;;;;;27.58;42.89;94854.09;5072428;28;20189;-82
2022/07/21 07:29:49;;;;;;;11.00;3.13;;;;;;;27.39;43.37;94806.28;5073530;28;20186;-84
2022/07/21 07:32:16;;;;;;;5.80;3.22;;;;;;;28.10;42.91;94906.41;5080398;28;20190;-82
2022/07/21 07:34:43;;;;;;;4.70;3.03;;;;;;;28.20;43.12;94900.50;5074164;28;20288;-81
2022/07/21 07:37:10;;;;;;;5.28;2.72;;;;;;;28.33;42.69;94899.38;5073194;28;20580;-82
2022/07/21 07:39:39;;;;;;;5.28;2.63;;;;;;;28.46;42.33;94894.56;5072358;28;20198;-82
2022/07/21 07:42:07;;;;;;;3.47;2.70;;;;;;;28.59;42.69;94897.88;5072255;28;20221;-84
2022/07/21 07:44:34;;;;;;;5.38;3.20;;;;;;;28.76;42.53;94898.59;5072365;28;20196;-82
2022/07/21 07:47:02;;;;;;;6.72;3.35;;;;;;;28.56;41.60;94849.16;5073664;28;20194;-87
2022/07/21 07:49:31;;;;;;;7.10;3.22;;;;;;;28.31;41.67;94799.63;5078214;28;20689;-91
2022/07/21 07:51:58;;;;;;;7.18;2.70;;;;;;;29.12;41.32;94891.09;5075362;28;20197;-83
2022/07/21 07:54:25;;;;;;;3.17;2.78;;;;;;;29.24;41.53;94892.53;5074718;28;20193;-94
2022/07/21 07:56:54;;;;;;;4.50;2.75;;;;;;;29.08;41.54;94845.22;5084527;28;20214;-92
2022/07/21 07:59:21;;;;;;;3.65;2.30;;;;;;;28.71;41.10;94762.47;5073828;28;20206;-89
2022/07/21 08:01:48;;;;;;;3.75;2.45;;;;;;;29.50;40.68;94867.19;5073720;28;20220;-87
2022/07/21 08:04:15;;;;;;;6.65;2.90;;;;;;;29.79;40.13;94879.28;5059944;28;20191;-95
2022/07/21 08:06:43;;;;;;;12.57;2.80;;;;;;;29.89;39.52;94880.16;5055844;28;20619;-90
2022/07/21 08:09:12;;;;;;;5.45;2.33;;;;;;;29.97;39.36;94877.06;5064982;28;20205;-86
2022/07/21 08:11:40;;;;;;;9.32;2.67;;;;;;;29.59;39.21;94795.59;5078269;28;20198;-96
2022/07/21 08:14:08;;;;;;;3.08;2.40;;;;;;;30.17;39.17;94881.66;5069613;28;20274;-89
2022/07/21 08:16:35;;;;;;;4.00;2.50;;;;;;;29.99;39.08;94824.84;5054685;28;20252;-89
2022/07/21 08:19:02;;;;;;;2.72;2.53;;;;;;;30.23;38.59;94849.00;5052983;28;20737;-89
2022/07/21 08:21:30;;;;;;;4.30;2.33;;;;;;;30.47;38.06;94859.91;5052536;28;20230;-87
2022/07/21 08:23:58;;;;;;;3.03;2.40;;;;;;;30.52;37.83;94872.31;5053198;28;20237;-87
2022/07/21 08:26:25;;;;;;;5.22;2.72;;;;;;;30.58;36.81;94867.88;5052335;28;20233;-90
2022/07/21 08:28:53;;;;;;;5.50;2.58;;;;;;;30.52;37.01;94839.88;5053651;28;20194;-94
2022/07/21 08:31:22;;;;;;;3.35;2.10;;;;;;;30.79;36.80;94872.22;5054900;28;20191;-90
2022/07/21 08:33:51;;;;;;;5.80;2.28;;;;;;;30.84;36.05;94866.94;5054344;28;20585;-91
2022/07/21 08:36:20;;;;;;;2.60;2.40;;;;;;;30.50;36.41;94797.91;5052507;28;20669;-87
2022/07/21 08:38:47;;;;;;;2.50;2.30;;;;;;;30.62;35.99;94805.59;5052116;28;20673;-86
2022/07/21 08:41:13;;;;;;;4.50;2.13;;;;;;;30.33;35.55;94755.09;5052273;28;20207;-86
2022/07/21 08:43:41;;;;;;;2.28;2.10;;;;;;;30.98;36.23;94854.81;5055759;28;20214;-83
2022/07/21 08:46:08;;;;;;;6.03;2.40;;;;;;;31.06;35.94;94848.22;5051395;28;20195;-85
2022/07/21 08:48:37;;;;;;;4.32;2.83;;;;;;;31.14;35.89;94853.00;5050992;28;20233;-85
2022/07/21 08:51:04;;;;;;;4.93;2.30;;;;;;;31.20;35.72;94849.28;5050776;28;20199;-85
2022/07/21 08:53:31;;;;;;;3.75;2.65;;;;;;;31.29;35.80;94849.59;5050904;28;20187;-84
2022/07/21 08:55:58;;;;;;;4.45;2.55;;;;;;;31.33;35.09;94836.63;5051112;28;20198;-84
2022/07/21 08:58:25;;;;;;;5.15;2.30;;;;;;;30.84;34.86;94752.59;5060222;28;20651;-88
2022/07/21 09:00:53;;;;;;;2.90;2.60;;;;;;;30.93;34.93;94751.78;5064292;28;20203;-90
2022/07/21 09:03:26;;;;;;;3.28;2.50;;;;;;;31.41;34.90;94814.97;5053997;28;20218;-94
2022/07/21 09:06:11;;;;;;;2.83;2.63;;;;;;;31.50;34.80;94807.28;5054756;28;20197;-91
2022/07/21 09:08:42;;;;;;;3.15;2.85;;;;;;;30.87;34.66;94701.84;5052698;28;20206;-92
2022/07/21 09:11:12;;;;;;;10.52;3.25;;;;;;;30.89;34.70;94689.97;5054611;28;20266;-89
2022/07/21 09:13:39;;;;;;;3.92;2.70;;;;;;;31.56;34.71;94782.41;5055886;28;20179;-88
2022/07/21 09:16:06;;;;;;;3.50;2.50;;;;;;;30.71;34.52;94648.25;5052451;28;20198;-87
2022/07/21 09:18:33;;;;;;;4.45;2.42;;;;;;;31.96;34.55;94827.34;5066107;28;20226;-87
2022/07/21 09:21:01;;;;;;;3.90;2.97;;;;;;;32.00;34.57;94822.31;5070675;28;20248;-88
2022/07/21 09:23:30;;;;;;;6.88;2.60;;;;;;;31.10;34.26;94690.75;5071252;28;20226;-91
2022/07/21 09:25:59;;;;;;;3.22;3.00;;;;;;;31.40;34.54;94734.09;5077050;28;20193;-89
2022/07/21 09:28:29;;;;;;;3.20;2.55;;;;;;;32.05;34.07;94832.88;5075859;28;20258;-90
2022/07/21 09:31:00;;;;;;;2.97;2.72;;;;;;;32.06;33.56;94825.72;5075707;28;20193;-92
2022/07/21 09:33:31;;;;;;;2.63;2.42;;;;;;;32.07;33.97;94819.38;5076725;28;20600;-90
2022/07/21 09:36:05;;;;;;;4.10;2.58;;;;;;;31.83;33.88;94769.72;5080874;28;20215;-90
2022/07/21 09:38:35;;;;;;;3.13;2.83;;;;;;;31.28;34.33;94683.31;5080626;28;20588;-90
2022/07/21 09:41:12;;;;;;;5.95;2.72;;;;;;;32.11;34.11;94813.25;5075481;28;20202;-90
2022/07/21 09:43:44;;;;;;;4.97;2.70;;;;;;;32.17;33.50;94811.41;5074272;28;20178;-90
2022/07/21 09:46:17;;;;;;;3.95;3.13;;;;;;;32.13;33.35;94799.78;5075178;28;20202;-90
2022/07/21 09:48:46;;;;;;;3.72;2.90;;;;;;;32.09;33.61;94790.81;5075469;28;20209;-92
2022/07/21 09:51:28;;;;;;;4.05;2.97;;;;;;;30.84;33.32;94589.63;5073938;28;20198;-93
2022/07/21 09:54:01;;;;;;;3.05;2.75;;;;;;;31.71;33.30;94709.16;5074133;28;20225;-91
2022/07/21 09:56:30;;;;;;;3.88;2.72;;;;;;;32.06;32.98;94764.88;5071082;28;20282;-88
2022/07/21 09:58:58;;;;;;;3.67;2.72;;;;;;;31.97;32.76;94754.84;5070793;28;20643;-87
2022/07/21 10:01:27;;;;;;;2.75;2.53;;;;;;;31.55;32.91;94683.81;5070924;28;20190;-88
2022/07/21 10:03:55;;;;;;;2.83;2.58;;;;;;;31.28;32.66;94633.94;5072205;28;20650;-89
2022/07/21 10:06:24;;;;;;;4.75;2.80;;;;;;;32.46;32.69;94811.56;5073919;28;20273;-90
2022/07/21 10:08:53;;;;;;;3.53;2.88;;;;;;;31.64;32.05;94676.09;5071338;28;20190;-90
2022/07/21 10:11:22;;;;;;;3.28;2.58;;;;;;;32.09;32.11;94745.81;5070242;28;20201;-86
2022/07/21 10:13:49;;;;;;;6.57;3.13;;;;;;;31.79;32.02;94702.50;5056439;28;20264;-88
2022/07/21 10:16:16;;;;;;;2.95;2.75;;;;;;;31.98;32.41;94729.16;5057775;28;20177;-86
2022/07/21 10:19:15;;;;;;;3.20;2.50;;;;;;;32.47;31.97;94810.50;5063185;28;20227;-91
2022/07/21 10:21:52;;;;;;;4.18;2.55;;;;;;;32.29;31.92;94780.09;5051968;28;20315;-87
2022/07/21 10:24:20;;;;;;;3.25;2.80;;;;;;;32.34;32.24;94798.63;5053038;28;20593;-87
2022/07/21 10:27:09;;;;;;;2.55;2.35;;;;;;;32.33;32.44;94791.75;5057079;28;20199;-85
2022/07/21 10:29:58;;;;;;;3.67;2.50;;;;;;;32.34;32.65;94792.53;5055537;28;20194;-89
2022/07/21 10:32:27;;;;;;;3.05;2.53;;;;;;;32.32;32.96;94790.16;5052069;28;20625;-87
2022/07/21 10:34:55;;;;;;;6.07;2.78;;;;;;;32.33;32.06;94791.75;5051139;28;20257;-88
2022/07/21 10:37:46;;;;;;;4.93;2.70;;;;;;;32.35;31.71;94791.47;5049696;28;20213;-85
2022/07/21 10:40:35;;;;;;;4.20;2.70;;;;;;;32.29;32.36;94788.03;4986611;28;20583;-85
2022/07/21 10:43:42;;;;;;;2.92;2.58;;;;;;;32.28;32.21;94783.03;5008499;28;20798;-84
2022/07/21 10:46:37;;;;;;;2.83;2.35;;;;;;;32.27;32.52;94776.16;5009175;28;20188;-86
2022/07/21 10:49:06;;;;;;;3.00;2.53;;;;;;;32.23;32.16;94773.25;5008507;28;20194;-83
2022/07/21 10:51:35;;;;;;;2.80;2.60;;;;;;;32.09;32.08;94738.66;5011601;28;20192;-83
2022/07/21 10:54:23;;;;;;;3.78;2.50;;;;;;;32.36;31.52;94769.22;5011080;28;20204;-82
2022/07/21 10:57:27;;;;;;;3.22;2.58;;;;;;;32.30;31.59;94752.59;5009258;28;20282;-84
2022/07/21 11:00:27;;;;;;;3.40;2.20;;;;;;;32.20;31.32;94721.66;5009264;28;20234;-85
2022/07/21 11:02:56;;;;;;;2.65;2.45;;;;;;;32.25;31.70;94735.94;5004520;28;20315;-85
2022/07/21 11:05:25;;;;;;;7.75;3.05;;;;;;;32.37;31.75;94761.00;5009117;28;20672;-83
2022/07/21 11:08:15;;;;;;;2.47;2.28;;;;;;;32.27;31.54;94731.94;5008909;28;20247;-84
2022/07/21 11:10:44;;;;;;;4.38;2.80;;;;;;;32.38;32.14;94745.94;5008623;28;20208;-85
2022/07/21 11:13:11;;;;;;;5.90;2.80;;;;;;;32.09;32.25;94703.47;5008441;28;20231;-84
2022/07/21 11:15:55;;;;;;;6.55;3.03;;;;;;;32.19;32.05;94719.28;5008729;28;20199;-85
2022/07/21 11:18:24;;;;;;;3.28;2.97;;;;;;;32.17;31.90;94724.88;5070274;28;20226;-86
2022/07/21 11:21:18;;;;;;;2.83;2.50;;;;;;;32.31;31.96;94743.59;5072303;28;20651;-86
2022/07/21 11:23:47;;;;;;;6.20;2.65;;;;;;;31.37;31.91;94599.81;5009951;28;20231;-85
2022/07/21 11:26:16;;;;;;;3.53;2.58;;;;;;;32.32;31.89;94747.81;5009159;28;20188;-86
2022/07/21 11:28:43;;;;;;;6.53;2.90;;;;;;;31.78;31.99;94655.97;5007324;28;20270;-85
2022/07/21 11:31:15;;;;;;;4.85;2.95;;;;;;;32.33;31.72;94752.03;5009439;28;20200;-84
2022/07/21 11:33:44;;;;;;;2.90;2.40;;;;;;;32.09;31.76;94711.41;5009492;28;20204;-83
2022/07/21 11:36:24;;;;;;;4.57;2.25;;;;;;;31.81;32.04;94679.22;5007581;28;20224;-85
2022/07/21 11:39:06;;;;;;;6.53;3.05;;;;;;;31.42;32.31;94620.94;5008522;28;20207;-86
2022/07/21 11:41:35;;;;;;;3.72;2.58;;;;;;;32.28;32.57;94740.69;5005857;28;20188;-85
2022/07/21 11:44:02;;;;;;;2.35;2.15;;;;;;;31.89;32.54;94672.59;5006160;28;20232;-84